Time,TemperatureF,DewpointF,PressureIn,WindDirection,WindDirectionDegrees,WindSpeedMPH,WindSpeedGustMPH,Humidity,HourlyPrecipIn,Conditions,Clouds,dailyrainin,SolarRadiationWatts/m^2,SoftwareType,DateUTC
2014-09-22 00:03:00,59.2,57.0,30.01,South,170,4.0,5.0,94,0.00,,,0.00,0,weatherlink.com 1.10,2014-09-22 07:03:00,
2014-09-22 00:19:00,59.2,57.0,30.01,South,171,0.0,7.0,94,0.00,,,0.00,0,weatherlink.com 1.10,2014-09-22 07:19:00,
2014-09-22 00:34:00,59.1,57.0,30.01,SSW,210,3.0,5.0,94,0.00,,,0.00,0,weatherlink.com 1.10,2014-09-22 07:34:00,
2014-09-22 00:49:00,58.9,57.0,30.01,SSE,158,0.0,8.0,94,0.00,,,0.00,0,weatherlink.com 1.10,2014-09-22 07:49:00,
2014-09-22 01:04:00,58.7,57.0,30.01,South,171,0.0,4.0,94,0.00,,,0.00,0,weatherlink.com 1.10,2014-09-22 08:04:00,
2014-09-22 01:20:00,58.7,57.0,30.01,South,176,1.0,5.0,95,0.00,,,0.00,0,weatherlink.com 1.10,2014-09-22 08:20:00,
2014-09-22 01:35:00,58.6,57.0,30.02,South,173,3.0,4.0,95,0.01,,,0.01,0,weatherlink.com 1.10,2014-09-22 08:35:00,
2014-09-22 01:51:00,58.6,57.0,30.02,South,188,0.0,4.0,95,0.01,,,0.01,0,weatherlink.com 1.10,2014-09-22 08:51:00,
2014-09-22 02:06:00,58.6,57.0,30.02,South,169,1.0,9.0,95,0.01,,,0.01,0,weatherlink.com 1.10,2014-09-22 09:06:00,
2014-09-22 02:21:00,58.6,57.0,30.02,SSE,166,4.0,6.0,95,0.01,,,0.01,0,weatherlink.com 1.10,2014-09-22 09:21:00,
2014-09-22 02:36:00,58.6,57.0,30.02,SE,146,0.0,7.0,95,0.00,,,0.01,0,weatherlink.com 1.10,2014-09-22 09:36:00,
2014-09-22 02:51:00,58.5,57.0,30.02,SSE,151,0.0,5.0,95,0.00,,,0.01,0,weatherlink.com 1.10,2014-09-22 09:51:00,
2014-09-22 03:07:00,58.4,57.0,30.01,SE,141,1.0,5.0,95,0.00,,,0.01,0,weatherlink.com 1.10,2014-09-22 10:07:00,
2014-09-22 03:22:00,58.4,57.0,30.01,South,171,0.0,5.0,95,0.00,,,0.01,0,weatherlink.com 1.10,2014-09-22 10:22:00,
2014-09-22 03:37:00,58.4,57.0,30.01,SSE,158,0.0,6.0,95,0.00,,,0.01,0,weatherlink.com 1.10,2014-09-22 10:37:00,
2014-09-22 03:52:00,58.4,57.0,30.01,SE,134,0.0,6.0,95,0.00,,,0.01,0,weatherlink.com 1.10,2014-09-22 10:52:00,
2014-09-22 04:08:00,58.4,57.0,30.02,SSE,167,0.0,6.0,95,0.00,,,0.01,0,weatherlink.com 1.10,2014-09-22 11:08:00,
2014-09-22 04:23:00,58.4,57.0,30.02,SSE,148,3.0,6.0,95,0.00,,,0.01,0,weatherlink.com 1.10,2014-09-22 11:23:00,
2014-09-22 04:38:00,58.3,57.0,30.02,SE,146,2.0,4.0,95,0.00,,,0.01,0,weatherlink.com 1.10,2014-09-22 11:38:00,
2014-09-22 04:53:00,58.3,57.0,30.02,SE,141,3.0,8.0,94,0.00,,,0.01,0,weatherlink.com 1.10,2014-09-22 11:53:00,
2014-09-22 05:09:00,58.3,57.0,30.02,SSE,151,1.0,5.0,94,0.00,,,0.01,0,weatherlink.com 1.10,2014-09-22 12:09:00,
2014-09-22 05:24:00,58.3,57.0,30.02,SSE,162,0.0,7.0,95,0.00,,,0.01,0,weatherlink.com 1.10,2014-09-22 12:24:00,
2014-09-22 05:39:00,58.3,57.0,30.02,SE,138,3.0,8.0,95,0.00,,,0.01,0,weatherlink.com 1.10,2014-09-22 12:39:00,
2014-09-22 05:54:00,58.3,57.0,30.02,South,190,4.0,8.0,94,0.00,,,0.01,0,weatherlink.com 1.10,2014-09-22 12:54:00,
2014-09-22 06:10:00,58.3,57.0,30.02,SSE,167,4.0,7.0,94,0.00,,,0.01,0,weatherlink.com 1.10,2014-09-22 13:10:00,
2014-09-22 06:25:00,58.3,57.0,30.02,South,188,5.0,11.0,94,0.00,,,0.01,0,weatherlink.com 1.10,2014-09-22 13:25:00,
2014-09-22 06:40:00,58.3,57.0,30.03,South,180,2.0,5.0,94,0.00,,,0.01,0,weatherlink.com 1.10,2014-09-22 13:40:00,
2014-09-22 06:55:00,58.3,57.0,30.02,SE,139,0.0,4.0,94,0.00,,,0.01,0,weatherlink.com 1.10,2014-09-22 13:55:00,
2014-09-22 07:11:00,58.3,57.0,30.03,SSE,151,0.0,5.0,94,0.00,,,0.01,5,weatherlink.com 1.10,2014-09-22 14:11:00,
2014-09-22 07:26:00,58.4,57.0,30.03,SSE,151,0.0,1.0,94,0.00,,,0.01,9,weatherlink.com 1.10,2014-09-22 14:26:00,
2014-09-22 07:41:00,58.4,57.0,30.03,SSE,151,0.0,2.0,94,0.00,,,0.01,14,weatherlink.com 1.10,2014-09-22 14:41:00,
2014-09-22 07:56:00,58.5,57.0,30.03,South,178,3.0,3.0,94,0.00,,,0.01,18,weatherlink.com 1.10,2014-09-22 14:56:00,
2014-09-22 08:12:00,58.6,57.0,30.03,South,178,0.0,1.0,94,0.00,,,0.01,14,weatherlink.com 1.10,2014-09-22 15:12:00,
2014-09-22 08:27:00,58.8,57.0,30.04,South,173,0.0,0.0,94,0.00,,,0.01,33,weatherlink.com 1.10,2014-09-22 15:27:00,
2014-09-22 08:42:00,59.3,58.0,30.04,South,174,0.0,3.0,94,0.00,,,0.01,125,weatherlink.com 1.10,2014-09-22 15:42:00,
2014-09-22 08:57:00,60.1,58.0,30.04,SSE,164,4.0,5.0,92,0.00,,,0.01,151,weatherlink.com 1.10,2014-09-22 15:57:00,
2014-09-22 09:31:00,61.1,58.0,30.04,SSE,158,0.0,5.0,90,0.00,,,0.01,83,weatherlink.com 1.10,2014-09-22 16:31:00,
2014-09-22 09:47:00,61.4,59.0,30.04,SSE,161,0.0,6.0,91,0.00,,,0.01,107,weatherlink.com 1.10,2014-09-22 16:47:00,
2014-09-22 10:02:00,61.9,58.0,30.04,SSE,160,5.0,7.0,88,0.00,,,0.01,144,weatherlink.com 1.10,2014-09-22 17:02:00,
2014-09-22 10:18:00,62.7,59.0,30.04,SE,142,2.0,7.0,87,0.00,,,0.01,220,weatherlink.com 1.10,2014-09-22 17:18:00,
2014-09-22 10:33:00,63.4,58.0,30.04,South,170,5.0,11.0,84,0.00,,,0.01,276,weatherlink.com 1.10,2014-09-22 17:33:00,
2014-09-22 10:48:00,64.0,59.0,30.03,SE,142,2.0,9.0,83,0.00,,,0.01,255,weatherlink.com 1.10,2014-09-22 17:48:00,
2014-09-22 11:03:00,64.7,59.0,30.03,SE,128,4.0,9.0,81,0.00,,,0.01,218,weatherlink.com 1.10,2014-09-22 18:03:00,
2014-09-22 11:19:00,65.1,58.0,30.03,South,184,5.0,10.0,77,0.00,,,0.01,295,weatherlink.com 1.10,2014-09-22 18:19:00,
2014-09-22 11:34:00,65.3,58.0,30.02,SSE,154,4.0,9.0,76,0.00,,,0.01,214,weatherlink.com 1.10,2014-09-22 18:34:00,
2014-09-22 11:49:00,65.7,58.0,30.02,SSE,159,2.0,8.0,77,0.00,,,0.01,281,weatherlink.com 1.10,2014-09-22 18:49:00,
2014-09-22 12:04:00,66.4,59.0,30.02,SSW,197,0.0,5.0,76,0.00,,,0.01,276,weatherlink.com 1.10,2014-09-22 19:04:00,
2014-09-22 12:20:00,65.8,58.0,30.02,WNW,283,0.0,3.0,75,0.00,,,0.01,160,weatherlink.com 1.10,2014-09-22 19:20:00,
2014-09-22 12:35:00,64.2,57.0,30.02,SW,220,2.0,6.0,77,0.00,,,0.01,144,weatherlink.com 1.10,2014-09-22 19:35:00,
2014-09-22 12:50:00,63.7,57.0,30.02,WSW,242,2.0,9.0,79,0.00,,,0.01,306,weatherlink.com 1.10,2014-09-22 19:50:00,
2014-09-22 13:06:00,63.7,57.0,30.02,WSW,254,3.0,11.0,80,0.00,,,0.01,265,weatherlink.com 1.10,2014-09-22 20:06:00,
2014-09-22 13:21:00,63.8,58.0,30.02,SW,236,2.0,8.0,80,0.00,,,0.01,262,weatherlink.com 1.10,2014-09-22 20:21:00,
2014-09-22 13:36:00,63.8,58.0,30.02,SW,228,3.0,8.0,82,0.00,,,0.01,378,weatherlink.com 1.10,2014-09-22 20:36:00,
2014-09-22 13:51:00,65.3,59.0,30.02,SW,221,1.0,8.0,80,0.00,,,0.01,380,weatherlink.com 1.10,2014-09-22 20:51:00,
2014-09-22 14:07:00,67.6,59.0,30.01,SSW,209,3.0,12.0,74,0.00,,,0.01,459,weatherlink.com 1.10,2014-09-22 21:07:00,
2014-09-22 14:22:00,68.9,59.0,30.00,SW,214,2.0,9.0,72,0.00,,,0.01,874,weatherlink.com 1.10,2014-09-22 21:22:00,
2014-09-22 14:37:00,69.4,59.0,30.00,SSW,195,6.0,11.0,69,0.00,,,0.01,264,weatherlink.com 1.10,2014-09-22 21:37:00,
2014-09-22 14:52:00,67.0,58.0,29.99,West,270,0.0,10.0,74,0.00,,,0.01,759,weatherlink.com 1.10,2014-09-22 21:52:00,
2014-09-22 15:08:00,67.9,59.0,29.98,West,261,3.0,7.0,72,0.00,,,0.01,425,weatherlink.com 1.10,2014-09-22 22:08:00,
2014-09-22 15:23:00,66.9,58.0,29.98,SW,221,2.0,8.0,74,0.00,,,0.01,362,weatherlink.com 1.10,2014-09-22 22:23:00,
2014-09-22 15:38:00,66.1,58.0,29.98,SSW,207,3.0,8.0,75,0.00,,,0.01,299,weatherlink.com 1.10,2014-09-22 22:38:00,
2014-09-22 15:53:00,65.9,58.0,29.98,WSW,246,3.0,11.0,77,0.00,,,0.01,536,weatherlink.com 1.10,2014-09-22 22:53:00,
2014-09-22 16:09:00,66.3,58.0,29.98,WNW,300,4.0,7.0,75,0.00,,,0.01,171,weatherlink.com 1.10,2014-09-22 23:09:00,
2014-09-22 16:24:00,65.3,58.0,29.98,WSW,242,3.0,11.0,76,0.00,,,0.01,206,weatherlink.com 1.10,2014-09-22 23:24:00,
2014-09-22 16:39:00,65.4,58.0,29.97,NW,307,3.0,7.0,77,0.00,,,0.01,209,weatherlink.com 1.10,2014-09-22 23:39:00,
2014-09-22 16:54:00,64.5,57.0,29.96,WSW,257,0.0,6.0,78,0.00,,,0.01,105,weatherlink.com 1.10,2014-09-22 23:54:00,
2014-09-22 17:10:00,63.8,58.0,29.96,WNW,285,2.0,7.0,80,0.00,,,0.01,134,weatherlink.com 1.10,2014-09-23 00:10:00,
2014-09-22 17:25:00,63.7,58.0,29.96,SW,236,2.0,7.0,81,0.00,,,0.01,123,weatherlink.com 1.10,2014-09-23 00:25:00,
2014-09-22 17:40:00,63.8,58.0,29.96,West,263,0.0,6.0,81,0.00,,,0.01,120,weatherlink.com 1.10,2014-09-23 00:40:00,
2014-09-22 17:55:00,63.8,58.0,29.96,West,263,0.0,6.0,80,0.00,,,0.01,107,weatherlink.com 1.10,2014-09-23 00:55:00,
2014-09-22 18:11:00,63.7,57.0,29.97,West,271,0.0,5.0,80,0.00,,,0.01,56,weatherlink.com 1.10,2014-09-23 01:11:00,
2014-09-22 18:26:00,63.2,57.0,29.97,SW,217,0.0,6.0,79,0.00,,,0.01,53,weatherlink.com 1.10,2014-09-23 01:26:00,
2014-09-22 18:41:00,62.9,57.0,29.96,SSE,157,1.0,5.0,80,0.00,,,0.01,33,weatherlink.com 1.10,2014-09-23 01:41:00,
2014-09-22 18:56:00,62.7,56.0,29.95,SSE,165,0.0,5.0,80,0.00,,,0.01,19,weatherlink.com 1.10,2014-09-23 01:56:00,
2014-09-22 19:12:00,62.4,56.0,29.95,SE,124,0.0,6.0,81,0.00,,,0.01,0,weatherlink.com 1.10,2014-09-23 02:12:00,
2014-09-22 19:27:00,61.9,57.0,29.95,SE,124,0.0,1.0,83,0.00,,,0.01,0,weatherlink.com 1.10,2014-09-23 02:27:00,
2014-09-22 19:42:00,61.6,56.0,29.94,SE,126,0.0,3.0,83,0.00,,,0.01,0,weatherlink.com 1.10,2014-09-23 02:42:00,
2014-09-22 19:57:00,61.4,57.0,29.94,SE,126,0.0,1.0,86,0.00,,,0.01,0,weatherlink.com 1.10,2014-09-23 02:57:00,
2014-09-22 20:13:00,60.9,57.0,29.94,ESE,115,0.0,2.0,88,0.01,,,0.02,0,weatherlink.com 1.10,2014-09-23 03:13:00,
2014-09-22 20:28:00,60.5,58.0,29.94,SE,134,0.0,2.0,90,0.01,,,0.02,0,weatherlink.com 1.10,2014-09-23 03:28:00,
2014-09-22 20:43:00,60.0,57.0,29.94,SE,140,2.0,3.0,91,0.01,,,0.02,0,weatherlink.com 1.10,2014-09-23 03:43:00,